sensor_id;sensor_type;location;lat;lon;timestamp;P1;durP1;ratioP1;P2;durP2;ratioP2
44925;SDS011;30662;51.210;7.656;2023-06-14T00:01:58;6.55;;;4.50;;
44925;SDS011;30662;51.210;7.656;2023-06-14T00:04:24;11.88;;;4.65;;
44925;SDS011;30662;51.210;7.656;2023-06-14T00:06:51;6.43;;;4.85;;
44925;SDS011;30662;51.210;7.656;2023-06-14T00:09:17;7.07;;;4.40;;
44925;SDS011;30662;51.210;7.656;2023-06-14T00:11:43;9.75;;;4.80;;
44925;SDS011;30662;51.210;7.656;2023-06-14T00:14:09;6.43;;;4.68;;
44925;SDS011;30662;51.210;7.656;2023-06-14T00:16:35;11.00;;;4.53;;
44925;SDS011;30662;51.210;7.656;2023-06-14T00:19:02;6.38;;;3.65;;
44925;SDS011;30662;51.210;7.656;2023-06-14T00:21:29;7.57;;;4.00;;
44925;SDS011;30662;51.210;7.656;2023-06-14T00:23:58;7.13;;;4.07;;
44925;SDS011;30662;51.210;7.656;2023-06-14T00:26:25;4.80;;;3.85;;
44925;SDS011;30662;51.210;7.656;2023-06-14T00:28:52;4.82;;;3.80;;
44925;SDS011;30662;51.210;7.656;2023-06-14T00:31:19;4.25;;;3.85;;
44925;SDS011;30662;51.210;7.656;2023-06-14T00:33:45;4.78;;;4.13;;
44925;SDS011;30662;51.210;7.656;2023-06-14T00:36:11;7.05;;;3.92;;
44925;SDS011;30662;51.210;7.656;2023-06-14T00:38:37;4.90;;;4.10;;
44925;SDS011;30662;51.210;7.656;2023-06-14T00:41:03;7.10;;;4.15;;
44925;SDS011;30662;51.210;7.656;2023-06-14T00:43:29;6.93;;;4.50;;
44925;SDS011;30662;51.210;7.656;2023-06-14T00:45:55;5.35;;;4.50;;
44925;SDS011;30662;51.210;7.656;2023-06-14T00:48:21;11.48;;;4.22;;
44925;SDS011;30662;51.210;7.656;2023-06-14T00:50:49;7.38;;;4.10;;
44925;SDS011;30662;51.210;7.656;2023-06-14T00:53:16;6.47;;;4.70;;
44925;SDS011;30662;51.210;7.656;2023-06-14T00:55:52;7.35;;;4.72;;
44925;SDS011;30662;51.210;7.656;2023-06-14T00:58:17;7.78;;;3.83;;
44925;SDS011;30662;51.210;7.656;2023-06-14T01:00:44;6.57;;;4.10;;
44925;SDS011;30662;51.210;7.656;2023-06-14T01:03:10;4.55;;;3.70;;
44925;SDS011;30662;51.210;7.656;2023-06-14T01:05:38;7.88;;;4.13;;
44925;SDS011;30662;51.210;7.656;2023-06-14T01:13:28;8.20;;;3.85;;
44925;SDS011;30662;51.210;7.656;2023-06-14T01:16:02;5.30;;;4.45;;
44925;SDS011;30662;51.210;7.656;2023-06-14T01:18:29;4.93;;;4.00;;
44925;SDS011;30662;51.210;7.656;2023-06-14T01:20:55;5.93;;;4.15;;
44925;SDS011;30662;51.210;7.656;2023-06-14T01:23:22;8.20;;;3.50;;
44925;SDS011;30662;51.210;7.656;2023-06-14T01:25:49;6.63;;;3.80;;
44925;SDS011;30662;51.210;7.656;2023-06-14T01:28:18;3.92;;;3.45;;
44925;SDS011;30662;51.210;7.656;2023-06-14T01:30:46;4.97;;;3.90;;
44925;SDS011;30662;51.210;7.656;2023-06-14T01:33:16;4.70;;;3.83;;
44925;SDS011;30662;51.210;7.656;2023-06-14T01:35:45;6.65;;;3.42;;
44925;SDS011;30662;51.210;7.656;2023-06-14T01:38:13;6.20;;;3.70;;
44925;SDS011;30662;51.210;7.656;2023-06-14T01:40:40;5.82;;;3.88;;
44925;SDS011;30662;51.210;7.656;2023-06-14T01:43:08;3.53;;;3.22;;
44925;SDS011;30662;51.210;7.656;2023-06-14T01:45:37;9.70;;;3.95;;
44925;SDS011;30662;51.210;7.656;2023-06-14T01:48:04;5.75;;;3.45;;
44925;SDS011;30662;51.210;7.656;2023-06-14T01:50:30;4.90;;;4.32;;
44925;SDS011;30662;51.210;7.656;2023-06-14T01:52:57;6.97;;;3.58;;
44925;SDS011;30662;51.210;7.656;2023-06-14T01:55:23;8.57;;;3.80;;
44925;SDS011;30662;51.210;7.656;2023-06-14T01:57:52;8.52;;;4.35;;
44925;SDS011;30662;51.210;7.656;2023-06-14T02:00:19;4.40;;;3.80;;
44925;SDS011;30662;51.210;7.656;2023-06-14T02:02:45;8.57;;;4.07;;
44925;SDS011;30662;51.210;7.656;2023-06-14T02:05:11;5.55;;;3.45;;
44925;SDS011;30662;51.210;7.656;2023-06-14T02:07:37;5.70;;;3.42;;
44925;SDS011;30662;51.210;7.656;2023-06-14T02:10:04;6.15;;;4.00;;
44925;SDS011;30662;51.210;7.656;2023-06-14T02:12:30;12.35;;;4.10;;
44925;SDS011;30662;51.210;7.656;2023-06-14T02:14:56;9.63;;;4.40;;
44925;SDS011;30662;51.210;7.656;2023-06-14T02:17:23;10.38;;;4.20;;
44925;SDS011;30662;51.210;7.656;2023-06-14T02:19:50;7.80;;;4.30;;
44925;SDS011;30662;51.210;7.656;2023-06-14T02:22:16;9.48;;;4.10;;
44925;SDS011;30662;51.210;7.656;2023-06-14T02:24:42;7.20;;;3.38;;
44925;SDS011;30662;51.210;7.656;2023-06-14T02:27:08;9.50;;;4.00;;
44925;SDS011;30662;51.210;7.656;2023-06-14T02:29:37;6.88;;;3.88;;
44925;SDS011;30662;51.210;7.656;2023-06-14T02:32:04;4.72;;;3.60;;
44925;SDS011;30662;51.210;7.656;2023-06-14T02:34:33;5.40;;;3.47;;
44925;SDS011;30662;51.210;7.656;2023-06-14T02:36:59;6.63;;;3.25;;
44925;SDS011;30662;51.210;7.656;2023-06-14T02:39:28;4.15;;;3.47;;
44925;SDS011;30662;51.210;7.656;2023-06-14T02:41:55;5.35;;;3.10;;
44925;SDS011;30662;51.210;7.656;2023-06-14T02:44:24;8.10;;;4.13;;
44925;SDS011;30662;51.210;7.656;2023-06-14T02:46:52;4.07;;;3.67;;
44925;SDS011;30662;51.210;7.656;2023-06-14T02:49:19;8.85;;;3.55;;
44925;SDS011;30662;51.210;7.656;2023-06-14T02:51:45;5.03;;;3.35;;
44925;SDS011;30662;51.210;7.656;2023-06-14T02:54:10;6.75;;;3.95;;
44925;SDS011;30662;51.210;7.656;2023-06-14T02:56:36;12.20;;;3.22;;
44925;SDS011;30662;51.210;7.656;2023-06-14T02:59:02;8.38;;;3.88;;
44925;SDS011;30662;51.210;7.656;2023-06-14T03:01:28;10.48;;;3.38;;
44925;SDS011;30662;51.210;7.656;2023-06-14T03:04:00;8.20;;;3.38;;
44925;SDS011;30662;51.210;7.656;2023-06-14T03:06:28;10.63;;;3.55;;
44925;SDS011;30662;51.210;7.656;2023-06-14T03:08:56;8.73;;;3.53;;
44925;SDS011;30662;51.210;7.656;2023-06-14T03:11:25;7.22;;;3.28;;
44925;SDS011;30662;51.210;7.656;2023-06-14T03:13:52;5.72;;;3.20;;
44925;SDS011;30662;51.210;7.656;2023-06-14T03:16:19;10.00;;;3.25;;
44925;SDS011;30662;51.210;7.656;2023-06-14T03:18:45;6.93;;;3.53;;
44925;SDS011;30662;51.210;7.656;2023-06-14T03:21:11;5.28;;;3.47;;
44925;SDS011;30662;51.210;7.656;2023-06-14T03:23:37;13.57;;;4.00;;
44925;SDS011;30662;51.210;7.656;2023-06-14T03:26:03;5.82;;;3.72;;
44925;SDS011;30662;51.210;7.656;2023-06-14T03:28:28;5.95;;;4.10;;
44925;SDS011;30662;51.210;7.656;2023-06-14T03:30:54;8.70;;;3.83;;
44925;SDS011;30662;51.210;7.656;2023-06-14T03:33:20;5.72;;;3.88;;
44925;SDS011;30662;51.210;7.656;2023-06-14T03:35:46;10.30;;;4.25;;
44925;SDS011;30662;51.210;7.656;2023-06-14T03:38:12;7.38;;;3.85;;
44925;SDS011;30662;51.210;7.656;2023-06-14T03:40:38;7.28;;;3.05;;
44925;SDS011;30662;51.210;7.656;2023-06-14T03:43:04;6.10;;;3.17;;
44925;SDS011;30662;51.210;7.656;2023-06-14T03:45:29;6.13;;;3.40;;
44925;SDS011;30662;51.210;7.656;2023-06-14T03:47:56;4.25;;;3.40;;
44925;SDS011;30662;51.210;7.656;2023-06-14T03:50:22;9.60;;;3.33;;
44925;SDS011;30662;51.210;7.656;2023-06-14T03:52:48;5.55;;;3.60;;
44925;SDS011;30662;51.210;7.656;2023-06-14T03:55:14;5.63;;;3.63;;
44925;SDS011;30662;51.210;7.656;2023-06-14T03:58:01;4.40;;;3.63;;
44925;SDS011;30662;51.210;7.656;2023-06-14T04:00:27;9.10;;;3.60;;
44925;SDS011;30662;51.210;7.656;2023-06-14T04:02:53;7.95;;;3.45;;
44925;SDS011;30662;51.210;7.656;2023-06-14T04:05:20;4.03;;;2.90;;
44925;SDS011;30662;51.210;7.656;2023-06-14T04:07:46;5.25;;;3.13;;
44925;SDS011;30662;51.210;7.656;2023-06-14T04:10:14;7.35;;;3.50;;
44925;SDS011;30662;51.210;7.656;2023-06-14T04:12:41;7.70;;;3.83;;
44925;SDS011;30662;51.210;7.656;2023-06-14T04:15:09;6.40;;;3.22;;
44925;SDS011;30662;51.210;7.656;2023-06-14T04:17:47;9.35;;;3.60;;
44925;SDS011;30662;51.210;7.656;2023-06-14T04:20:13;5.95;;;3.65;;
44925;SDS011;30662;51.210;7.656;2023-06-14T04:22:39;5.43;;;3.00;;
44925;SDS011;30662;51.210;7.656;2023-06-14T04:25:06;4.97;;;3.20;;
44925;SDS011;30662;51.210;7.656;2023-06-14T04:27:34;10.00;;;3.10;;
44925;SDS011;30662;51.210;7.656;2023-06-14T04:30:01;8.90;;;3.97;;
44925;SDS011;30662;51.210;7.656;2023-06-14T04:32:28;7.60;;;3.50;;
44925;SDS011;30662;51.210;7.656;2023-06-14T04:35:05;7.10;;;3.83;;
44925;SDS011;30662;51.210;7.656;2023-06-14T04:37:32;7.53;;;3.70;;
44925;SDS011;30662;51.210;7.656;2023-06-14T04:39:58;6.45;;;3.85;;
44925;SDS011;30662;51.210;7.656;2023-06-14T04:42:24;8.45;;;4.35;;
44925;SDS011;30662;51.210;7.656;2023-06-14T04:44:56;6.22;;;3.42;;
44925;SDS011;30662;51.210;7.656;2023-06-14T04:47:23;7.95;;;4.00;;
44925;SDS011;30662;51.210;7.656;2023-06-14T04:49:56;6.65;;;3.88;;
44925;SDS011;30662;51.210;7.656;2023-06-14T04:52:23;5.97;;;3.65;;
44925;SDS011;30662;51.210;7.656;2023-06-14T04:54:52;8.13;;;3.67;;
44925;SDS011;30662;51.210;7.656;2023-06-14T04:57:19;3.88;;;3.13;;
44925;SDS011;30662;51.210;7.656;2023-06-14T04:59:48;10.23;;;4.30;;
44925;SDS011;30662;51.210;7.656;2023-06-14T05:02:17;5.57;;;3.78;;
44925;SDS011;30662;51.210;7.656;2023-06-14T05:04:43;5.25;;;3.45;;
44925;SDS011;30662;51.210;7.656;2023-06-14T05:07:09;5.28;;;3.30;;
44925;SDS011;30662;51.210;7.656;2023-06-14T05:09:35;6.28;;;3.75;;
44925;SDS011;30662;51.210;7.656;2023-06-14T05:12:01;8.38;;;3.58;;
44925;SDS011;30662;51.210;7.656;2023-06-14T05:14:28;4.65;;;3.38;;
44925;SDS011;30662;51.210;7.656;2023-06-14T05:16:54;7.20;;;4.03;;
44925;SDS011;30662;51.210;7.656;2023-06-14T05:19:19;5.57;;;3.50;;
44925;SDS011;30662;51.210;7.656;2023-06-14T05:21:46;5.65;;;3.55;;
44925;SDS011;30662;51.210;7.656;2023-06-14T05:24:13;4.80;;;3.28;;
44925;SDS011;30662;51.210;7.656;2023-06-14T05:26:40;7.13;;;3.50;;
44925;SDS011;30662;51.210;7.656;2023-06-14T05:29:06;6.55;;;3.67;;
44925;SDS011;30662;51.210;7.656;2023-06-14T05:31:32;4.18;;;2.80;;
44925;SDS011;30662;51.210;7.656;2023-06-14T05:33:58;4.32;;;3.53;;
44925;SDS011;30662;51.210;7.656;2023-06-14T05:36:24;7.65;;;3.63;;
44925;SDS011;30662;51.210;7.656;2023-06-14T05:38:51;4.43;;;3.28;;
44925;SDS011;30662;51.210;7.656;2023-06-14T05:41:24;6.18;;;3.28;;
44925;SDS011;30662;51.210;7.656;2023-06-14T05:43:51;6.40;;;2.92;;
44925;SDS011;30662;51.210;7.656;2023-06-14T05:46:18;7.32;;;3.83;;
44925;SDS011;30662;51.210;7.656;2023-06-14T05:48:50;5.22;;;3.47;;
44925;SDS011;30662;51.210;7.656;2023-06-14T05:51:17;6.22;;;3.40;;
44925;SDS011;30662;51.210;7.656;2023-06-14T05:53:48;6.90;;;2.95;;
44925;SDS011;30662;51.210;7.656;2023-06-14T05:56:15;7.60;;;3.75;;
44925;SDS011;30662;51.210;7.656;2023-06-14T05:58:43;4.78;;;3.10;;
44925;SDS011;30662;51.210;7.656;2023-06-14T06:01:10;5.10;;;3.10;;
44925;SDS011;30662;51.210;7.656;2023-06-14T06:03:36;4.70;;;3.15;;
44925;SDS011;30662;51.210;7.656;2023-06-14T06:06:02;4.97;;;3.00;;
44925;SDS011;30662;51.210;7.656;2023-06-14T06:08:28;3.40;;;3.10;;
44925;SDS011;30662;51.210;7.656;2023-06-14T06:10:55;4.78;;;3.53;;
44925;SDS011;30662;51.210;7.656;2023-06-14T06:13:22;5.45;;;2.83;;
44925;SDS011;30662;51.210;7.656;2023-06-14T06:15:48;6.70;;;3.33;;
44925;SDS011;30662;51.210;7.656;2023-06-14T06:18:13;4.88;;;2.90;;
44925;SDS011;30662;51.210;7.656;2023-06-14T06:20:40;8.35;;;3.28;;
44925;SDS011;30662;51.210;7.656;2023-06-14T06:23:06;9.45;;;2.78;;
44925;SDS011;30662;51.210;7.656;2023-06-14T06:25:33;7.95;;;3.20;;
44925;SDS011;30662;51.210;7.656;2023-06-14T06:27:59;7.30;;;2.90;;
44925;SDS011;30662;51.210;7.656;2023-06-14T06:30:25;6.53;;;3.15;;
44925;SDS011;30662;51.210;7.656;2023-06-14T06:32:51;3.65;;;2.40;;
44925;SDS011;30662;51.210;7.656;2023-06-14T06:35:17;7.82;;;2.47;;
44925;SDS011;30662;51.210;7.656;2023-06-14T06:37:43;3.28;;;2.17;;
44925;SDS011;30662;51.210;7.656;2023-06-14T06:40:09;3.88;;;2.33;;
44925;SDS011;30662;51.210;7.656;2023-06-14T06:42:35;4.30;;;2.15;;
44925;SDS011;30662;51.210;7.656;2023-06-14T06:45:02;6.15;;;2.00;;
44925;SDS011;30662;51.210;7.656;2023-06-14T06:47:28;8.40;;;2.42;;
44925;SDS011;30662;51.210;7.656;2023-06-14T06:49:54;5.35;;;2.03;;
44925;SDS011;30662;51.210;7.656;2023-06-14T06:52:20;3.88;;;2.22;;
44925;SDS011;30662;51.210;7.656;2023-06-14T06:54:46;6.78;;;2.30;;
44925;SDS011;30662;51.210;7.656;2023-06-14T06:57:12;2.40;;;2.13;;
44925;SDS011;30662;51.210;7.656;2023-06-14T06:59:38;3.63;;;1.92;;
44925;SDS011;30662;51.210;7.656;2023-06-14T07:02:04;4.93;;;2.30;;
44925;SDS011;30662;51.210;7.656;2023-06-14T07:04:30;4.88;;;2.22;;
44925;SDS011;30662;51.210;7.656;2023-06-14T07:06:57;4.78;;;2.55;;
44925;SDS011;30662;51.210;7.656;2023-06-14T07:09:22;2.55;;;1.85;;
44925;SDS011;30662;51.210;7.656;2023-06-14T07:11:50;7.07;;;2.55;;
44925;SDS011;30662;51.210;7.656;2023-06-14T07:14:16;3.38;;;2.47;;
44925;SDS011;30662;51.210;7.656;2023-06-14T07:16:42;3.25;;;2.42;;
44925;SDS011;30662;51.210;7.656;2023-06-14T07:19:08;4.90;;;2.15;;
44925;SDS011;30662;51.210;7.656;2023-06-14T07:21:35;3.55;;;2.20;;
44925;SDS011;30662;51.210;7.656;2023-06-14T07:24:04;6.70;;;2.47;;
44925;SDS011;30662;51.210;7.656;2023-06-14T07:26:32;4.85;;;2.13;;
44925;SDS011;30662;51.210;7.656;2023-06-14T07:28:58;3.28;;;2.17;;
44925;SDS011;30662;51.210;7.656;2023-06-14T07:31:23;2.67;;;2.33;;
44925;SDS011;30662;51.210;7.656;2023-06-14T07:33:50;4.38;;;2.15;;
44925;SDS011;30662;51.210;7.656;2023-06-14T07:36:16;3.72;;;1.77;;
44925;SDS011;30662;51.210;7.656;2023-06-14T07:38:43;3.83;;;1.70;;
44925;SDS011;30662;51.210;7.656;2023-06-14T07:41:09;5.15;;;1.95;;
44925;SDS011;30662;51.210;7.656;2023-06-14T07:43:35;2.22;;;1.55;;
44925;SDS011;30662;51.210;7.656;2023-06-14T07:46:00;1.55;;;1.45;;
44925;SDS011;30662;51.210;7.656;2023-06-14T07:48:33;2.08;;;1.75;;
44925;SDS011;30662;51.210;7.656;2023-06-14T07:51:00;8.18;;;1.65;;
44925;SDS011;30662;51.210;7.656;2023-06-14T07:53:26;2.80;;;1.58;;
44925;SDS011;30662;51.210;7.656;2023-06-14T07:55:52;5.85;;;1.50;;
44925;SDS011;30662;51.210;7.656;2023-06-14T07:58:19;2.83;;;1.63;;
44925;SDS011;30662;51.210;7.656;2023-06-14T08:00:45;3.30;;;1.63;;
44925;SDS011;30662;51.210;7.656;2023-06-14T08:03:11;2.10;;;1.30;;
44925;SDS011;30662;51.210;7.656;2023-06-14T08:05:37;2.38;;;1.67;;
44925;SDS011;30662;51.210;7.656;2023-06-14T08:08:03;3.85;;;1.60;;
44925;SDS011;30662;51.210;7.656;2023-06-14T08:10:29;3.80;;;1.52;;
44925;SDS011;30662;51.210;7.656;2023-06-14T08:12:55;2.28;;;1.48;;
44925;SDS011;30662;51.210;7.656;2023-06-14T08:15:21;8.68;;;1.70;;
44925;SDS011;30662;51.210;7.656;2023-06-14T08:17:47;2.80;;;1.70;;
44925;SDS011;30662;51.210;7.656;2023-06-14T08:20:13;4.55;;;1.67;;
44925;SDS011;30662;51.210;7.656;2023-06-14T08:22:42;4.57;;;1.52;;
44925;SDS011;30662;51.210;7.656;2023-06-14T08:25:08;4.10;;;1.58;;
44925;SDS011;30662;51.210;7.656;2023-06-14T08:27:35;3.50;;;1.85;;
44925;SDS011;30662;51.210;7.656;2023-06-14T08:30:01;4.38;;;1.65;;
44925;SDS011;30662;51.210;7.656;2023-06-14T08:32:28;2.15;;;1.52;;
44925;SDS011;30662;51.210;7.656;2023-06-14T08:34:54;3.25;;;1.38;;
44925;SDS011;30662;51.210;7.656;2023-06-14T08:37:31;4.40;;;1.60;;
44925;SDS011;30662;51.210;7.656;2023-06-14T08:39:58;4.25;;;1.63;;
44925;SDS011;30662;51.210;7.656;2023-06-14T08:42:24;2.80;;;1.73;;
44925;SDS011;30662;51.210;7.656;2023-06-14T08:44:57;3.38;;;1.55;;
44925;SDS011;30662;51.210;7.656;2023-06-14T08:47:24;3.45;;;1.40;;
44925;SDS011;30662;51.210;7.656;2023-06-14T08:49:52;4.25;;;1.42;;
44925;SDS011;30662;51.210;7.656;2023-06-14T08:52:22;3.92;;;1.45;;
44925;SDS011;30662;51.210;7.656;2023-06-14T08:54:50;4.45;;;1.38;;
44925;SDS011;30662;51.210;7.656;2023-06-14T08:57:16;2.70;;;1.50;;
44925;SDS011;30662;51.210;7.656;2023-06-14T08:59:45;3.17;;;1.23;;
44925;SDS011;30662;51.210;7.656;2023-06-14T09:02:15;3.10;;;1.52;;
44925;SDS011;30662;51.210;7.656;2023-06-14T09:04:43;2.67;;;1.58;;
44925;SDS011;30662;51.210;7.656;2023-06-14T09:07:10;1.98;;;1.35;;
44925;SDS011;30662;51.210;7.656;2023-06-14T09:09:39;3.78;;;1.55;;
44925;SDS011;30662;51.210;7.656;2023-06-14T09:12:12;1.58;;;1.10;;
44925;SDS011;30662;51.210;7.656;2023-06-14T09:14:39;3.75;;;1.27;;
44925;SDS011;30662;51.210;7.656;2023-06-14T09:17:07;2.78;;;1.23;;
44925;SDS011;30662;51.210;7.656;2023-06-14T09:19:34;1.85;;;1.15;;
44925;SDS011;30662;51.210;7.656;2023-06-14T09:22:02;6.45;;;1.23;;
44925;SDS011;30662;51.210;7.656;2023-06-14T09:24:32;2.20;;;1.58;;
44925;SDS011;30662;51.210;7.656;2023-06-14T09:26:58;2.05;;;1.20;;
44925;SDS011;30662;51.210;7.656;2023-06-14T09:29:24;8.60;;;1.48;;
44925;SDS011;30662;51.210;7.656;2023-06-14T09:31:52;1.73;;;1.30;;
44925;SDS011;30662;51.210;7.656;2023-06-14T09:34:18;4.30;;;1.13;;
44925;SDS011;30662;51.210;7.656;2023-06-14T09:36:46;2.75;;;1.17;;
44925;SDS011;30662;51.210;7.656;2023-06-14T09:39:11;2.45;;;1.05;;
44925;SDS011;30662;51.210;7.656;2023-06-14T09:41:43;1.42;;;1.17;;
44925;SDS011;30662;51.210;7.656;2023-06-14T09:44:10;2.22;;;1.40;;
44925;SDS011;30662;51.210;7.656;2023-06-14T09:46:46;3.55;;;1.27;;
44925;SDS011;30662;51.210;7.656;2023-06-14T09:49:13;1.60;;;1.30;;
44925;SDS011;30662;51.210;7.656;2023-06-14T09:51:42;2.72;;;1.20;;
44925;SDS011;30662;51.210;7.656;2023-06-14T09:54:12;1.58;;;1.20;;
44925;SDS011;30662;51.210;7.656;2023-06-14T09:56:43;3.03;;;1.10;;
44925;SDS011;30662;51.210;7.656;2023-06-14T09:59:10;2.22;;;0.80;;
44925;SDS011;30662;51.210;7.656;2023-06-14T10:01:41;1.67;;;1.13;;
44925;SDS011;30662;51.210;7.656;2023-06-14T10:04:09;2.53;;;1.00;;
44925;SDS011;30662;51.210;7.656;2023-06-14T10:06:40;1.52;;;0.98;;
44925;SDS011;30662;51.210;7.656;2023-06-14T10:09:09;3.33;;;1.10;;
44925;SDS011;30662;51.210;7.656;2023-06-14T10:11:36;2.38;;;1.20;;
44925;SDS011;30662;51.210;7.656;2023-06-14T10:14:05;4.63;;;1.10;;
44925;SDS011;30662;51.210;7.656;2023-06-14T10:16:33;0.95;;;0.73;;
44925;SDS011;30662;51.210;7.656;2023-06-14T10:19:05;2.67;;;1.13;;
44925;SDS011;30662;51.210;7.656;2023-06-14T10:21:36;0.80;;;0.80;;
44925;SDS011;30662;51.210;7.656;2023-06-14T10:24:08;2.95;;;0.95;;
44925;SDS011;30662;51.210;7.656;2023-06-14T10:26:49;1.80;;;1.17;;
44925;SDS011;30662;51.210;7.656;2023-06-14T10:29:17;1.63;;;1.00;;
44925;SDS011;30662;51.210;7.656;2023-06-14T10:31:44;3.05;;;1.10;;
44925;SDS011;30662;51.210;7.656;2023-06-14T10:34:11;3.42;;;0.90;;
44925;SDS011;30662;51.210;7.656;2023-06-14T10:36:41;2.97;;;0.90;;
44925;SDS011;30662;51.210;7.656;2023-06-14T10:39:15;1.48;;;1.00;;
44925;SDS011;30662;51.210;7.656;2023-06-14T10:41:50;3.45;;;1.13;;
44925;SDS011;30662;51.210;7.656;2023-06-14T10:49:17;4.43;;;0.88;;
44925;SDS011;30662;51.210;7.656;2023-06-14T10:51:44;0.82;;;0.82;;
44925;SDS011;30662;51.210;7.656;2023-06-14T10:54:17;2.05;;;0.90;;
44925;SDS011;30662;51.210;7.656;2023-06-14T10:56:46;3.58;;;0.90;;
44925;SDS011;30662;51.210;7.656;2023-06-14T10:59:15;2.50;;;0.95;;
44925;SDS011;30662;51.210;7.656;2023-06-14T11:07:27;1.70;;;0.80;;
44925;SDS011;30662;51.210;7.656;2023-06-14T11:10:10;2.35;;;0.90;;
44925;SDS011;30662;51.210;7.656;2023-06-14T11:12:59;2.30;;;1.30;;
44925;SDS011;30662;51.210;7.656;2023-06-14T11:15:28;1.42;;;1.05;;
44925;SDS011;30662;51.210;7.656;2023-06-14T11:17:56;1.20;;;0.90;;
44925;SDS011;30662;51.210;7.656;2023-06-14T11:20:26;1.17;;;1.00;;
44925;SDS011;30662;51.210;7.656;2023-06-14T11:22:54;2.03;;;1.23;;
44925;SDS011;30662;51.210;7.656;2023-06-14T11:25:20;4.80;;;0.95;;
44925;SDS011;30662;51.210;7.656;2023-06-14T11:27:48;1.25;;;0.80;;
44925;SDS011;30662;51.210;7.656;2023-06-14T11:30:15;1.88;;;1.10;;
44925;SDS011;30662;51.210;7.656;2023-06-14T11:32:42;1.88;;;0.77;;
44925;SDS011;30662;51.210;7.656;2023-06-14T11:35:14;4.30;;;1.10;;
44925;SDS011;30662;51.210;7.656;2023-06-14T11:37:41;4.40;;;1.48;;
44925;SDS011;30662;51.210;7.656;2023-06-14T11:40:07;3.17;;;1.10;;
44925;SDS011;30662;51.210;7.656;2023-06-14T11:42:35;3.88;;;1.20;;
44925;SDS011;30662;51.210;7.656;2023-06-14T11:45:02;1.45;;;1.20;;
44925;SDS011;30662;51.210;7.656;2023-06-14T11:47:41;1.80;;;1.10;;
44925;SDS011;30662;51.210;7.656;2023-06-14T11:50:08;1.33;;;1.15;;
44925;SDS011;30662;51.210;7.656;2023-06-14T11:52:36;2.60;;;1.05;;
44925;SDS011;30662;51.210;7.656;2023-06-14T11:55:02;2.55;;;1.10;;
44925;SDS011;30662;51.210;7.656;2023-06-14T11:57:35;2.33;;;1.40;;
44925;SDS011;30662;51.210;7.656;2023-06-14T12:00:05;2.55;;;1.33;;
44925;SDS011;30662;51.210;7.656;2023-06-14T12:02:37;4.03;;;1.92;;
44925;SDS011;30662;51.210;7.656;2023-06-14T12:05:06;1.52;;;1.02;;
44925;SDS011;30662;51.210;7.656;2023-06-14T12:07:38;2.67;;;1.38;;
44925;SDS011;30662;51.210;7.656;2023-06-14T12:10:07;1.52;;;1.13;;
44925;SDS011;30662;51.210;7.656;2023-06-14T12:12:35;2.83;;;1.25;;
44925;SDS011;30662;51.210;7.656;2023-06-14T12:15:04;3.05;;;1.52;;
44925;SDS011;30662;51.210;7.656;2023-06-14T12:17:32;3.50;;;1.10;;
44925;SDS011;30662;51.210;7.656;2023-06-14T12:20:04;1.83;;;1.30;;
44925;SDS011;30662;51.210;7.656;2023-06-14T12:25:34;4.38;;;2.00;;
44925;SDS011;30662;51.210;7.656;2023-06-14T12:28:05;1.98;;;1.25;;
44925;SDS011;30662;51.210;7.656;2023-06-14T12:30:33;2.47;;;1.20;;
44925;SDS011;30662;51.210;7.656;2023-06-14T12:33:03;4.40;;;1.40;;
44925;SDS011;30662;51.210;7.656;2023-06-14T12:35:30;2.10;;;1.30;;
44925;SDS011;30662;51.210;7.656;2023-06-14T12:37:56;1.98;;;1.50;;
44925;SDS011;30662;51.210;7.656;2023-06-14T12:40:22;1.95;;;1.40;;
44925;SDS011;30662;51.210;7.656;2023-06-14T12:42:48;1.55;;;1.23;;
44925;SDS011;30662;51.210;7.656;2023-06-14T12:45:14;3.85;;;1.13;;
44925;SDS011;30662;51.210;7.656;2023-06-14T12:47:41;3.13;;;1.40;;
44925;SDS011;30662;51.210;7.656;2023-06-14T12:50:07;3.38;;;1.17;;
44925;SDS011;30662;51.210;7.656;2023-06-14T12:52:33;3.03;;;1.35;;
44925;SDS011;30662;51.210;7.656;2023-06-14T12:55:04;1.95;;;1.50;;
44925;SDS011;30662;51.210;7.656;2023-06-14T12:57:31;2.50;;;1.50;;
44925;SDS011;30662;51.210;7.656;2023-06-14T12:59:59;2.38;;;1.30;;
44925;SDS011;30662;51.210;7.656;2023-06-14T13:02:25;2.15;;;1.27;;
44925;SDS011;30662;51.210;7.656;2023-06-14T13:04:52;2.30;;;1.70;;
44925;SDS011;30662;51.210;7.656;2023-06-14T13:07:18;2.25;;;1.48;;
44925;SDS011;30662;51.210;7.656;2023-06-14T13:09:44;2.75;;;1.58;;
44925;SDS011;30662;51.210;7.656;2023-06-14T13:12:10;2.17;;;1.40;;
44925;SDS011;30662;51.210;7.656;2023-06-14T13:14:38;2.97;;;1.50;;
44925;SDS011;30662;51.210;7.656;2023-06-14T13:17:05;2.63;;;1.63;;
44925;SDS011;30662;51.210;7.656;2023-06-14T13:19:31;2.80;;;1.35;;
44925;SDS011;30662;51.210;7.656;2023-06-14T13:21:57;1.83;;;1.27;;
44925;SDS011;30662;51.210;7.656;2023-06-14T13:24:23;2.65;;;1.42;;
44925;SDS011;30662;51.210;7.656;2023-06-14T13:26:49;1.75;;;1.10;;
44925;SDS011;30662;51.210;7.656;2023-06-14T13:29:14;3.75;;;1.20;;
44925;SDS011;30662;51.210;7.656;2023-06-14T13:31:40;1.85;;;1.35;;
44925;SDS011;30662;51.210;7.656;2023-06-14T13:34:06;1.50;;;1.08;;
44925;SDS011;30662;51.210;7.656;2023-06-14T13:36:32;2.78;;;1.10;;
44925;SDS011;30662;51.210;7.656;2023-06-14T13:38:58;1.45;;;1.35;;
44925;SDS011;30662;51.210;7.656;2023-06-14T13:41:25;1.77;;;1.10;;
44925;SDS011;30662;51.210;7.656;2023-06-14T13:43:59;2.90;;;1.27;;
44925;SDS011;30662;51.210;7.656;2023-06-14T13:46:25;3.55;;;1.42;;
44925;SDS011;30662;51.210;7.656;2023-06-14T13:48:51;3.03;;;1.50;;
44925;SDS011;30662;51.210;7.656;2023-06-14T13:51:17;2.10;;;1.38;;
44925;SDS011;30662;51.210;7.656;2023-06-14T13:53:47;4.38;;;1.48;;
44925;SDS011;30662;51.210;7.656;2023-06-14T13:56:16;3.85;;;1.55;;
44925;SDS011;30662;51.210;7.656;2023-06-14T13:58:42;2.70;;;1.50;;
44925;SDS011;30662;51.210;7.656;2023-06-14T14:01:08;2.22;;;1.10;;
44925;SDS011;30662;51.210;7.656;2023-06-14T14:03:35;1.80;;;1.50;;
44925;SDS011;30662;51.210;7.656;2023-06-14T14:06:01;4.50;;;1.65;;
44925;SDS011;30662;51.210;7.656;2023-06-14T14:08:31;2.53;;;1.27;;
44925;SDS011;30662;51.210;7.656;2023-06-14T14:10:57;1.65;;;1.42;;
44925;SDS011;30662;51.210;7.656;2023-06-14T14:13:22;2.72;;;1.33;;
44925;SDS011;30662;51.210;7.656;2023-06-14T14:15:49;2.28;;;1.60;;
44925;SDS011;30662;51.210;7.656;2023-06-14T14:18:14;3.00;;;1.20;;
44925;SDS011;30662;51.210;7.656;2023-06-14T14:20:41;3.85;;;1.17;;
44925;SDS011;30662;51.210;7.656;2023-06-14T14:23:07;5.55;;;1.67;;
44925;SDS011;30662;51.210;7.656;2023-06-14T14:25:33;1.48;;;1.30;;
44925;SDS011;30662;51.210;7.656;2023-06-14T14:27:59;3.30;;;1.67;;
44925;SDS011;30662;51.210;7.656;2023-06-14T14:30:25;3.65;;;1.30;;
44925;SDS011;30662;51.210;7.656;2023-06-14T14:32:51;4.75;;;1.60;;
44925;SDS011;30662;51.210;7.656;2023-06-14T14:35:18;5.93;;;1.63;;
44925;SDS011;30662;51.210;7.656;2023-06-14T14:37:44;3.50;;;1.55;;
44925;SDS011;30662;51.210;7.656;2023-06-14T14:40:11;3.92;;;1.60;;
44925;SDS011;30662;51.210;7.656;2023-06-14T14:42:37;4.22;;;1.80;;
44925;SDS011;30662;51.210;7.656;2023-06-14T14:45:03;2.40;;;1.40;;
44925;SDS011;30662;51.210;7.656;2023-06-14T14:47:30;5.68;;;1.42;;
44925;SDS011;30662;51.210;7.656;2023-06-14T14:49:56;1.85;;;1.20;;
44925;SDS011;30662;51.210;7.656;2023-06-14T14:52:21;3.75;;;1.40;;
44925;SDS011;30662;51.210;7.656;2023-06-14T14:54:50;4.57;;;1.80;;
44925;SDS011;30662;51.210;7.656;2023-06-14T14:57:16;3.97;;;1.60;;
44925;SDS011;30662;51.210;7.656;2023-06-14T14:59:42;2.13;;;1.60;;
44925;SDS011;30662;51.210;7.656;2023-06-14T15:02:08;2.55;;;1.50;;
44925;SDS011;30662;51.210;7.656;2023-06-14T15:04:34;2.20;;;1.85;;
44925;SDS011;30662;51.210;7.656;2023-06-14T15:07:00;3.92;;;1.50;;
44925;SDS011;30662;51.210;7.656;2023-06-14T15:09:26;5.78;;;1.88;;